Time;durP1;ratioP1;P1;durP2;ratioP2;P2;SDS_P1;SDS_P2;PMS_P1;PMS_P2;Temp;Humidity;BMP_temperature;BMP_pressure;BME280_temperature;BME280_humidity;BME280_pressure;Samples;Min_cycle;Max_cycle;Signal;HPM_P1;HPM_P2
2023/12/14 00:00:45;;;;;;;5.73;4.10;;;9.60;99.90;;;;;;4963932;28;20239;-68
2023/12/14 00:03:10;;;;;;;5.23;3.47;;;9.60;99.90;;;;;;4968439;28;20198;-67
2023/12/14 00:05:36;;;;;;;6.10;3.77;;;9.60;99.90;;;;;;4959336;28;20622;-67
2023/12/14 00:08:02;;;;;;;4.40;3.97;;;9.50;99.90;;;;;;4962604;28;20653;-67
2023/12/14 00:10:27;;;;;;;4.70;4.03;;;9.50;99.90;;;;;;4956919;28;20187;-68
2023/12/14 00:12:55;;;;;;;6.33;4.80;;;9.60;99.90;;;;;;4963283;28;20234;-68
2023/12/14 00:15:23;;;;;;;5.07;4.07;;;9.60;99.90;;;;;;4967224;28;20178;-67
2023/12/14 00:17:49;;;;;;;7.70;6.10;;;9.50;99.90;;;;;;4966227;28;20430;-67
2023/12/14 00:20:14;;;;;;;8.07;5.50;;;9.50;99.90;;;;;;4961561;28;20806;-67
2023/12/14 00:22:40;;;;;;;6.10;5.50;;;9.50;99.90;;;;;;4959525;28;20310;-67
2023/12/14 00:25:09;;;;;;;6.70;5.20;;;9.50;99.90;;;;;;4961842;28;20269;-68
2023/12/14 00:27:34;;;;;;;9.93;5.80;;;9.60;99.90;;;;;;4968275;28;20186;-68
2023/12/14 00:30:00;;;;;;;8.23;5.87;;;9.60;99.90;;;;;;4956940;28;20509;-68
2023/12/14 00:32:25;;;;;;;6.90;6.03;;;9.60;99.90;;;;;;4961445;28;20178;-69
2023/12/14 00:34:51;;;;;;;11.83;6.90;;;9.60;99.90;;;;;;4959795;28;20566;-66
2023/12/14 00:37:17;;;;;;;8.97;6.73;;;9.60;99.90;;;;;;4962810;28;20707;-67
2023/12/14 00:39:42;;;;;;;9.07;7.37;;;9.60;99.90;;;;;;4963463;28;20217;-68
2023/12/14 00:42:08;;;;;;;8.87;6.80;;;9.60;99.90;;;;;;4956923;28;20297;-67
2023/12/14 00:44:33;;;;;;;7.87;6.60;;;9.60;99.90;;;;;;4963470;28;20234;-67
2023/12/14 00:47:00;;;;;;;7.90;6.57;;;9.60;99.90;;;;;;4963646;28;20194;-67
2023/12/14 00:49:27;;;;;;;9.17;8.10;;;9.70;99.90;;;;;;4955816;28;20194;-68
2023/12/14 00:51:53;;;;;;;11.10;7.90;;;9.60;99.90;;;;;;4965957;28;20429;-67
2023/12/14 00:54:18;;;;;;;9.40;7.00;;;9.60;99.90;;;;;;4960685;28;20466;-67
2023/12/14 00:56:44;;;;;;;11.67;6.60;;;9.60;99.90;;;;;;4961421;28;20206;-67
2023/12/14 00:59:10;;;;;;;12.77;7.90;;;9.60;99.90;;;;;;4955778;28;20191;-67
2023/12/14 01:01:35;;;;;;;16.67;7.87;;;9.60;99.90;;;;;;4964482;28;20277;-67
2023/12/14 01:04:01;;;;;;;9.47;6.97;;;9.70;99.90;;;;;;4956860;28;20218;-67
2023/12/14 01:06:26;;;;;;;11.73;8.27;;;9.70;99.90;;;;;;4957943;28;20195;-67
2023/12/14 01:08:52;;;;;;;11.00;7.87;;;9.70;99.90;;;;;;4965824;28;20229;-67
2023/12/14 01:11:17;;;;;;;12.60;8.37;;;9.70;99.90;;;;;;4955633;28;20663;-67
2023/12/14 01:13:43;;;;;;;9.70;7.20;;;9.70;99.90;;;;;;4960257;28;20214;-68
2023/12/14 01:16:08;;;;;;;13.20;8.50;;;9.70;99.90;;;;;;4968473;28;20198;-68
2023/12/14 01:18:34;;;;;;;11.70;7.63;;;9.70;99.90;;;;;;4963151;28;20278;-68
2023/12/14 01:21:00;;;;;;;11.07;7.90;;;9.70;99.90;;;;;;4964267;28;20804;-68
2023/12/14 01:23:25;;;;;;;12.00;8.20;;;9.70;99.90;;;;;;4966107;28;20202;-68
2023/12/14 01:25:51;;;;;;;11.20;8.60;;;9.70;99.90;;;;;;4959120;28;20257;-68
2023/12/14 01:28:16;;;;;;;13.50;9.17;;;9.80;99.90;;;;;;4966623;28;20182;-68
2023/12/14 01:30:42;;;;;;;10.23;8.83;;;9.70;99.90;;;;;;4960003;28;20197;-68
2023/12/14 01:33:07;;;;;;;9.80;8.47;;;9.70;99.90;;;;;;4955294;28;20289;-68
2023/12/14 01:35:33;;;;;;;11.20;8.70;;;9.80;99.90;;;;;;4957532;28;20183;-68
2023/12/14 01:37:59;;;;;;;10.43;7.90;;;9.80;99.90;;;;;;4961886;28;20190;-68
2023/12/14 01:40:24;;;;;;;13.37;9.87;;;9.80;99.90;;;;;;4959710;28;20221;-68
2023/12/14 01:42:50;;;;;;;11.47;7.77;;;9.70;99.90;;;;;;4955932;28;20210;-68
2023/12/14 01:45:16;;;;;;;10.57;8.83;;;9.70;99.90;;;;;;4962150;28;20182;-68
2023/12/14 01:47:42;;;;;;;14.53;8.80;;;9.80;99.90;;;;;;4955545;28;20190;-68
2023/12/14 01:50:08;;;;;;;12.80;9.03;;;9.70;99.90;;;;;;4964482;28;20437;-66
2023/12/14 01:52:34;;;;;;;12.37;8.80;;;9.70;99.90;;;;;;4962101;28;20423;-67
2023/12/14 01:54:59;;;;;;;9.40;7.60;;;9.70;99.90;;;;;;4962250;28;20421;-67
2023/12/14 01:57:25;;;;;;;14.03;8.70;;;9.70;99.90;;;;;;4958152;28;20187;-67
2023/12/14 01:59:50;;;;;;;9.97;7.37;;;9.60;99.90;;;;;;4960833;28;20183;-67
2023/12/14 02:02:16;;;;;;;11.73;8.50;;;9.70;99.90;;;;;;4965743;28;20206;-67
2023/12/14 02:04:42;;;;;;;8.30;7.10;;;9.70;99.90;;;;;;4967558;28;20217;-67
2023/12/14 02:07:07;;;;;;;10.83;8.27;;;9.60;99.90;;;;;;4962443;28;20658;-67
2023/12/14 02:09:33;;;;;;;11.60;8.00;;;9.70;99.90;;;;;;4969608;28;20233;-67
2023/12/14 02:11:58;;;;;;;9.77;7.23;;;9.70;99.90;;;;;;4964871;28;20187;-67
2023/12/14 02:14:24;;;;;;;8.83;7.13;;;9.70;99.90;;;;;;4962949;28;20211;-67
2023/12/14 02:16:50;;;;;;;10.37;7.97;;;9.60;99.90;;;;;;4962038;28;20277;-67
2023/12/14 02:19:15;;;;;;;11.87;7.90;;;9.70;99.90;;;;;;4968121;28;20191;-67
2023/12/14 02:21:41;;;;;;;8.23;7.33;;;9.70;99.90;;;;;;4958382;28;20415;-67
2023/12/14 02:24:06;;;;;;;10.03;7.30;;;9.70;99.90;;;;;;4963520;28;20286;-67
2023/12/14 02:26:32;;;;;;;10.50;7.83;;;9.70;99.90;;;;;;4967208;28;20242;-67
2023/12/14 02:28:57;;;;;;;8.60;7.67;;;9.70;99.90;;;;;;4964602;28;20599;-67
2023/12/14 02:31:23;;;;;;;11.30;8.20;;;9.60;99.90;;;;;;4971610;28;20182;-68
2023/12/14 02:33:49;;;;;;;10.50;8.00;;;9.70;99.90;;;;;;4968720;28;20201;-67
2023/12/14 02:36:14;;;;;;;11.47;8.70;;;9.70;99.90;;;;;;4969394;28;20194;-67
2023/12/14 02:38:40;;;;;;;11.10;8.40;;;9.70;99.90;;;;;;4965691;28;20225;-67
2023/12/14 02:41:06;;;;;;;12.30;8.67;;;9.70;99.90;;;;;;4965074;28;20201;-68
2023/12/14 02:43:31;;;;;;;12.10;8.20;;;9.70;99.90;;;;;;4961790;28;20207;-67
2023/12/14 02:46:01;;;;;;;9.57;8.00;;;9.70;99.90;;;;;;4959884;28;20190;-68
2023/12/14 02:48:29;;;;;;;11.53;9.13;;;9.90;99.90;;;;;;4964660;28;20222;-68
2023/12/14 02:50:54;;;;;;;11.90;8.30;;;9.90;99.90;;;;;;4966796;28;20427;-67
2023/12/14 02:53:20;;;;;;;12.67;8.63;;;9.80;99.90;;;;;;4966757;28;20981;-68
2023/12/14 02:55:46;;;;;;;10.53;8.70;;;9.80;99.90;;;;;;4971149;28;20187;-67
2023/12/14 02:58:11;;;;;;;11.37;8.80;;;9.90;99.90;;;;;;4967680;28;20325;-67
2023/12/14 03:00:37;;;;;;;11.80;8.40;;;9.90;99.90;;;;;;4963049;28;20300;-68
2023/12/14 03:03:02;;;;;;;9.90;8.90;;;9.80;99.90;;;;;;4964505;28;20202;-67
2023/12/14 03:05:28;;;;;;;13.23;9.20;;;9.80;99.90;;;;;;4967951;28;20262;-67
2023/12/14 03:07:53;;;;;;;11.87;9.00;;;9.80;99.90;;;;;;4968121;28;20182;-68
2023/12/14 03:10:20;;;;;;;10.93;9.00;;;9.80;99.90;;;;;;4958763;28;20209;-67
2023/12/14 03:12:45;;;;;;;15.30;9.80;;;9.80;99.90;;;;;;4956918;28;20501;-67
2023/12/14 03:15:11;;;;;;;14.63;11.70;;;9.80;99.90;;;;;;4956195;28;20186;-67
2023/12/14 03:17:37;;;;;;;12.53;10.23;;;9.90;99.90;;;;;;4962979;28;20343;-68
2023/12/14 03:20:05;;;;;;;11.40;9.40;;;9.80;99.90;;;;;;4955541;28;20194;-68
2023/12/14 03:22:30;;;;;;;12.50;10.70;;;9.90;99.90;;;;;;4960564;28;20183;-68
2023/12/14 03:24:56;;;;;;;11.97;10.00;;;10.00;99.90;;;;;;4953873;28;20863;-67
2023/12/14 03:27:23;;;;;;;15.80;10.90;;;9.90;99.90;;;;;;4957504;28;20192;-68
2023/12/14 03:29:48;;;;;;;13.83;10.30;;;9.90;99.90;;;;;;4966496;28;20206;-67
2023/12/14 03:32:14;;;;;;;13.37;10.80;;;9.90;99.90;;;;;;4965162;28;21162;-67
2023/12/14 03:34:40;;;;;;;15.77;12.07;;;9.90;99.90;;;;;;4960205;28;21064;-68
2023/12/14 03:37:06;;;;;;;16.00;11.53;;;9.90;99.90;;;;;;4965998;28;20213;-68
2023/12/14 03:39:31;;;;;;;12.10;10.00;;;10.00;99.90;;;;;;4965820;28;20436;-68
2023/12/14 03:41:57;;;;;;;17.00;11.33;;;10.00;99.90;;;;;;4965024;28;20215;-68
2023/12/14 03:44:23;;;;;;;14.57;10.80;;;10.00;99.90;;;;;;4968353;28;20684;-68
2023/12/14 03:46:49;;;;;;;16.57;12.27;;;9.90;99.90;;;;;;4961059;28;20191;-68
2023/12/14 03:49:15;;;;;;;17.23;11.60;;;9.90;99.90;;;;;;4954187;28;20497;-68
2023/12/14 03:51:40;;;;;;;16.67;12.07;;;9.90;99.90;;;;;;4954373;28;20648;-68
2023/12/14 03:54:06;;;;;;;23.50;13.00;;;9.90;99.90;;;;;;4962849;28;20723;-68
2023/12/14 03:56:31;;;;;;;15.00;12.10;;;9.90;99.90;;;;;;4965215;28;20186;-69
2023/12/14 03:58:57;;;;;;;14.47;11.43;;;10.00;99.90;;;;;;4961636;28;20234;-68
2023/12/14 04:01:23;;;;;;;15.40;11.20;;;10.00;99.90;;;;;;4961314;28;20210;-68
2023/12/14 04:03:48;;;;;;;16.20;12.60;;;10.00;99.90;;;;;;4960969;28;20457;-68
2023/12/14 04:06:14;;;;;;;17.53;12.50;;;10.10;99.90;;;;;;4958803;28;20206;-68
2023/12/14 04:08:41;;;;;;;20.67;12.57;;;10.10;99.90;;;;;;4949385;28;20239;-68
2023/12/14 04:11:07;;;;;;;15.93;12.63;;;10.10;99.90;;;;;;4956532;28;20442;-67
2023/12/14 04:13:33;;;;;;;16.83;12.60;;;10.10;99.90;;;;;;4967828;28;20452;-67
2023/12/14 04:15:59;;;;;;;17.10;13.57;;;10.10;99.90;;;;;;4956508;28;20195;-68
2023/12/14 04:18:25;;;;;;;14.83;11.63;;;10.00;99.90;;;;;;4960020;28;20418;-68
2023/12/14 04:20:50;;;;;;;18.03;12.73;;;10.00;99.90;;;;;;4957806;28;20222;-68
2023/12/14 04:23:16;;;;;;;18.67;13.13;;;10.00;99.90;;;;;;4957636;28;20214;-67
2023/12/14 04:25:42;;;;;;;14.33;11.70;;;10.00;99.90;;;;;;4959917;28;20222;-67
2023/12/14 04:28:07;;;;;;;17.40;13.37;;;10.00;99.90;;;;;;4964294;28;20261;-67
2023/12/14 04:30:33;;;;;;;16.43;13.43;;;10.00;99.90;;;;;;4963665;28;20217;-67
2023/12/14 04:32:58;;;;;;;20.20;13.17;;;10.00;99.90;;;;;;4954771;28;20305;-67
2023/12/14 04:35:24;;;;;;;16.83;13.87;;;9.90;99.90;;;;;;4956679;28;20534;-67
2023/12/14 04:37:50;;;;;;;16.30;14.10;;;9.90;99.90;;;;;;4964151;28;20243;-67
2023/12/14 04:40:15;;;;;;;17.53;13.67;;;9.80;99.90;;;;;;4962080;28;20186;-67
2023/12/14 04:42:41;;;;;;;21.30;14.80;;;9.90;99.90;;;;;;4965646;28;20213;-67
2023/12/14 04:45:08;;;;;;;17.27;13.17;;;9.90;99.90;;;;;;4966606;28;20213;-67
2023/12/14 04:47:34;;;;;;;19.73;13.10;;;10.00;99.90;;;;;;4971013;28;20186;-67
2023/12/14 04:50:00;;;;;;;17.87;13.57;;;9.90;99.90;;;;;;4963208;28;20528;-67
2023/12/14 04:52:26;;;;;;;17.90;13.90;;;9.90;99.90;;;;;;4965625;28;20452;-67
2023/12/14 04:54:51;;;;;;;19.40;13.70;;;9.90;99.90;;;;;;4975880;28;20794;-67
2023/12/14 04:57:18;;;;;;;21.00;15.00;;;10.00;99.90;;;;;;4969136;28;20279;-67
2023/12/14 04:59:43;;;;;;;20.73;14.17;;;10.00;99.90;;;;;;4969256;28;20193;-67
2023/12/14 05:02:09;;;;;;;20.60;13.53;;;10.00;99.90;;;;;;4961492;28;20492;-67
2023/12/14 05:04:35;;;;;;;18.07;13.23;;;10.00;99.90;;;;;;4963851;28;20261;-67
2023/12/14 05:07:00;;;;;;;19.93;14.50;;;10.00;99.90;;;;;;4961669;28;20210;-67
2023/12/14 05:09:26;;;;;;;21.70;14.63;;;10.00;99.90;;;;;;4968219;28;20186;-67
2023/12/14 05:11:52;;;;;;;17.97;14.63;;;10.10;99.90;;;;;;4966345;28;20190;-66
2023/12/14 05:14:19;;;;;;;20.70;15.00;;;10.10;99.90;;;;;;4964984;28;20198;-66
2023/12/14 05:16:44;;;;;;;21.83;14.07;;;10.10;99.90;;;;;;4963300;28;20430;-67
2023/12/14 05:19:10;;;;;;;20.77;13.97;;;10.10;99.90;;;;;;4960859;28;20496;-67
2023/12/14 05:21:35;;;;;;;19.07;14.23;;;10.10;99.90;;;;;;4958824;28;20590;-67
2023/12/14 05:24:01;;;;;;;21.97;15.00;;;10.10;99.90;;;;;;4952056;28;20199;-68
2023/12/14 05:26:27;;;;;;;19.93;14.57;;;10.10;99.90;;;;;;4961121;28;20225;-67
2023/12/14 05:28:52;;;;;;;18.43;15.17;;;10.10;99.90;;;;;;4955911;28;20613;-67
2023/12/14 05:31:18;;;;;;;21.00;14.63;;;10.20;99.90;;;;;;4967221;28;20187;-67
2023/12/14 05:33:43;;;;;;;19.83;14.50;;;10.10;99.90;;;;;;4956405;28;20219;-67
2023/12/14 05:36:10;;;;;;;18.17;12.67;;;10.20;99.90;;;;;;4962548;28;20571;-67
2023/12/14 05:38:40;;;;;;;17.10;13.60;;;10.10;99.90;;;;;;4961839;28;20205;-67
2023/12/14 05:41:05;;;;;;;17.30;13.97;;;10.10;99.90;;;;;;4958999;28;20471;-68
2023/12/14 05:43:31;;;;;;;22.10;14.50;;;10.10;99.90;;;;;;4969391;28;20445;-67
2023/12/14 05:45:57;;;;;;;18.83;14.40;;;10.10;99.90;;;;;;4964986;28;20685;-67
2023/12/14 05:48:22;;;;;;;19.07;12.93;;;10.00;99.90;;;;;;4969635;28;20182;-67
2023/12/14 05:50:48;;;;;;;18.07;13.87;;;10.00;99.90;;;;;;4962942;28;20195;-67
2023/12/14 05:53:14;;;;;;;18.77;14.57;;;10.10;99.90;;;;;;4962427;28;20273;-67
2023/12/14 05:55:40;;;;;;;25.47;14.53;;;10.10;99.90;;;;;;4962184;28;20685;-67
2023/12/14 05:58:07;;;;;;;18.60;13.33;;;10.10;99.90;;;;;;4954843;28;20221;-67
2023/12/14 06:00:34;;;;;;;16.50;13.83;;;10.10;99.90;;;;;;4955517;28;20469;-67
2023/12/14 06:03:00;;;;;;;18.97;13.00;;;10.10;99.90;;;;;;4958131;28;20807;-67
2023/12/14 06:05:25;;;;;;;17.53;13.27;;;10.10;99.90;;;;;;4968231;28;20506;-67
2023/12/14 06:07:51;;;;;;;22.10;15.43;;;10.00;99.90;;;;;;4955562;28;20202;-67
2023/12/14 06:10:17;;;;;;;18.37;13.40;;;10.10;99.90;;;;;;4964805;28;20195;-68
2023/12/14 06:12:42;;;;;;;19.60;14.10;;;10.10;99.90;;;;;;4962501;28;20209;-68
2023/12/14 06:15:08;;;;;;;17.50;13.37;;;10.10;99.90;;;;;;4964105;28;20190;-68
2023/12/14 06:17:34;;;;;;;18.13;14.43;;;10.00;99.90;;;;;;4963976;28;20186;-68
2023/12/14 06:20:00;;;;;;;20.27;14.70;;;10.00;99.90;;;;;;4961891;28;20317;-68
2023/12/14 06:22:26;;;;;;;17.67;13.20;;;10.10;99.90;;;;;;4968196;28;20214;-68
2023/12/14 06:24:51;;;;;;;19.43;13.40;;;10.10;99.90;;;;;;4954802;28;20466;-66
2023/12/14 06:27:17;;;;;;;16.50;13.40;;;10.10;99.90;;;;;;4958516;28;20458;-68
2023/12/14 06:29:43;;;;;;;20.13;13.40;;;10.20;99.90;;;;;;4955325;28;20250;-67
2023/12/14 06:32:08;;;;;;;20.67;14.00;;;10.10;99.90;;;;;;4958941;28;20194;-67
2023/12/14 06:34:34;;;;;;;17.13;13.40;;;10.10;99.90;;;;;;4956662;28;20211;-68
2023/12/14 06:37:00;;;;;;;16.77;13.07;;;10.10;99.90;;;;;;4956365;28;20191;-69
2023/12/14 06:39:25;;;;;;;17.50;14.70;;;10.10;99.90;;;;;;4961988;28;20694;-67
2023/12/14 06:41:54;;;;;;;17.70;13.83;;;10.10;99.90;;;;;;4956579;28;20203;-68
2023/12/14 06:44:19;;;;;;;19.80;13.60;;;10.10;99.90;;;;;;4959121;28;20206;-68
2023/12/14 06:46:45;;;;;;;16.47;13.20;;;10.10;99.90;;;;;;4959293;28;20961;-67
2023/12/14 06:49:10;;;;;;;19.77;12.93;;;10.00;99.90;;;;;;4977123;28;20205;-68
2023/12/14 06:51:36;;;;;;;17.93;12.80;;;10.00;99.90;;;;;;4963542;28;20208;-67
2023/12/14 06:54:01;;;;;;;18.70;13.77;;;10.00;99.90;;;;;;4959404;28;20302;-68
2023/12/14 06:56:27;;;;;;;16.70;13.00;;;10.00;99.90;;;;;;4969790;28;20187;-67
2023/12/14 06:58:53;;;;;;;13.47;11.40;;;10.00;99.90;;;;;;4967550;28;20186;-67
2023/12/14 07:01:18;;;;;;;16.67;11.93;;;10.00;99.90;;;;;;4966283;28;20476;-67
2023/12/14 07:03:44;;;;;;;22.30;13.83;;;10.00;99.90;;;;;;4961479;28;20544;-67
2023/12/14 07:06:18;;;;;;;14.80;12.70;;;9.90;99.90;;;;;;4969722;28;20195;-67
2023/12/14 07:08:44;;;;;;;13.77;11.97;;;9.90;99.90;;;;;;4969371;28;20273;-68
2023/12/14 07:11:10;;;;;;;19.13;12.57;;;9.90;99.90;;;;;;4967633;28;20443;-67
2023/12/14 07:13:36;;;;;;;14.47;12.10;;;10.00;99.90;;;;;;4969611;28;20442;-67
2023/12/14 07:16:07;;;;;;;17.30;12.83;;;10.00;99.90;;;;;;4969720;28;20514;-68
2023/12/14 07:18:42;;;;;;;17.43;13.30;;;10.00;99.90;;;;;;4971383;28;20178;-67
2023/12/14 07:21:08;;;;;;;15.20;11.47;;;10.10;99.90;;;;;;4960585;28;21268;-67
2023/12/14 07:23:35;;;;;;;17.17;13.33;;;10.00;99.90;;;;;;4966048;28;20505;-68
2023/12/14 07:26:01;;;;;;;15.07;12.07;;;10.00;99.90;;;;;;4961384;28;20429;-68
2023/12/14 07:28:27;;;;;;;16.10;11.60;;;9.90;99.90;;;;;;4960882;28;20418;-67
2023/12/14 07:30:53;;;;;;;14.60;10.90;;;9.90;99.90;;;;;;4963179;28;20490;-68
2023/12/14 07:33:18;;;;;;;17.03;12.80;;;9.90;99.90;;;;;;4962894;28;20528;-67
2023/12/14 07:35:44;;;;;;;18.13;12.40;;;9.90;99.90;;;;;;4964783;28;20190;-68
2023/12/14 07:38:11;;;;;;;18.47;12.90;;;10.00;99.90;;;;;;4963645;28;20267;-68
2023/12/14 07:40:38;;;;;;;16.23;11.87;;;10.00;99.90;;;;;;4964993;28;20221;-68
2023/12/14 07:43:04;;;;;;;14.30;11.40;;;10.00;99.90;;;;;;4963674;28;20469;-68
2023/12/14 07:45:30;;;;;;;20.20;12.63;;;10.00;99.90;;;;;;4965248;28;20418;-68
2023/12/14 07:47:55;;;;;;;13.33;11.27;;;10.00;99.90;;;;;;4957796;28;20920;-68
2023/12/14 07:50:21;;;;;;;26.73;12.40;;;9.90;99.90;;;;;;4960907;28;20183;-68
2023/12/14 07:52:46;;;;;;;16.90;11.20;;;10.00;99.90;;;;;;4963381;28;20185;-68
2023/12/14 07:55:13;;;;;;;16.80;12.50;;;10.00;99.90;;;;;;4955290;28;20166;-68
2023/12/14 07:57:39;;;;;;;14.63;11.53;;;10.00;99.90;;;;;;4964507;28;20193;-68
2023/12/14 08:00:08;;;;;;;16.50;11.33;;;10.00;99.90;;;;;;4961699;28;20421;-68
2023/12/14 08:02:33;;;;;;;16.37;11.70;;;10.00;99.90;;;;;;4960420;28;20468;-68
2023/12/14 08:04:59;;;;;;;15.57;11.23;;;10.00;99.90;;;;;;4959701;28;20506;-68
2023/12/14 08:07:28;;;;;;;15.60;11.23;;;10.00;99.90;;;;;;4958865;28;20178;-68
2023/12/14 08:09:54;;;;;;;18.63;11.00;;;10.00;99.90;;;;;;4957387;28;20568;-67
2023/12/14 08:12:21;;;;;;;17.20;11.30;;;10.00;99.90;;;;;;4955466;28;20437;-67
2023/12/14 08:14:47;;;;;;;14.63;11.30;;;10.00;99.90;;;;;;4956839;28;20450;-67
2023/12/14 08:17:12;;;;;;;17.37;12.30;;;10.00;99.90;;;;;;4962133;28;20485;-67
2023/12/14 08:19:38;;;;;;;16.10;11.17;;;9.90;99.90;;;;;;4965054;28;20671;-67
2023/12/14 08:22:04;;;;;;;15.73;11.80;;;10.00;99.90;;;;;;4966301;28;20659;-67
2023/12/14 08:24:29;;;;;;;18.93;12.53;;;10.10;99.90;;;;;;4960995;28;20735;-67
2023/12/14 08:26:55;;;;;;;13.87;11.20;;;10.10;99.90;;;;;;4966237;28;20190;-67
2023/12/14 08:29:22;;;;;;;14.80;11.13;;;10.10;99.90;;;;;;4963333;28;20229;-67
2023/12/14 08:31:48;;;;;;;14.90;11.33;;;10.20;99.90;;;;;;4965032;28;20183;-67
2023/12/14 08:34:13;;;;;;;17.03;11.20;;;10.20;99.90;;;;;;4958625;28;20453;-67
2023/12/14 08:36:39;;;;;;;19.47;11.87;;;10.20;99.90;;;;;;4959381;28;20433;-67
2023/12/14 08:39:04;;;;;;;14.53;11.33;;;10.20;99.90;;;;;;4955585;28;20226;-67
2023/12/14 08:41:30;;;;;;;16.13;11.60;;;10.20;99.90;;;;;;4962887;28;20218;-67
2023/12/14 08:43:55;;;;;;;16.50;11.77;;;10.20;99.90;;;;;;4963659;28;20203;-67
2023/12/14 08:46:21;;;;;;;14.47;11.47;;;10.20;99.90;;;;;;4958543;28;20654;-67
2023/12/14 08:48:48;;;;;;;16.83;10.90;;;10.30;99.90;;;;;;4967905;28;20182;-67
2023/12/14 08:51:14;;;;;;;17.00;11.40;;;10.30;99.90;;;;;;4959897;28;20437;-67
2023/12/14 08:53:40;;;;;;;15.70;12.40;;;10.30;99.90;;;;;;4968904;28;20839;-67
2023/12/14 08:56:06;;;;;;;15.33;11.20;;;10.30;99.90;;;;;;4963519;28;20187;-66
2023/12/14 08:58:31;;;;;;;13.63;10.40;;;10.40;99.90;;;;;;4961007;28;20682;-66
2023/12/14 09:00:57;;;;;;;15.60;11.50;;;10.40;99.90;;;;;;4958432;28;20508;-67
2023/12/14 09:03:22;;;;;;;19.37;12.37;;;10.40;99.90;;;;;;4956379;28;20202;-67
2023/12/14 09:05:48;;;;;;;18.30;11.07;;;10.40;99.90;;;;;;4965484;28;20265;-67
2023/12/14 09:08:13;;;;;;;16.03;11.37;;;10.30;99.90;;;;;;4953863;28;20777;-67
2023/12/14 09:10:39;;;;;;;17.50;10.10;;;10.30;99.90;;;;;;4963137;28;20237;-67
2023/12/14 09:13:05;;;;;;;15.17;10.63;;;10.40;99.90;;;;;;4967286;28;20220;-67
2023/12/14 09:15:34;;;;;;;17.10;11.43;;;10.40;99.90;;;;;;4961625;28;20187;-67
2023/12/14 09:18:00;;;;;;;12.40;9.77;;;10.40;99.90;;;;;;4959612;28;20571;-67
2023/12/14 09:20:25;;;;;;;12.67;9.73;;;10.40;99.90;;;;;;4968435;28;20453;-67
2023/12/14 09:22:52;;;;;;;14.53;10.93;;;10.40;99.90;;;;;;4970262;28;20451;-67
2023/12/14 09:25:18;;;;;;;17.80;10.73;;;10.30;99.90;;;;;;4965553;28;20430;-66
2023/12/14 09:27:43;;;;;;;14.30;10.73;;;10.40;99.90;;;;;;4968676;28;20437;-67
2023/12/14 09:30:10;;;;;;;14.10;10.20;;;10.40;99.90;;;;;;4967200;28;20209;-67
2023/12/14 09:32:36;;;;;;;15.27;10.53;;;10.50;99.90;;;;;;4965448;28;20182;-68
2023/12/14 09:35:02;;;;;;;17.17;11.57;;;10.50;99.90;;;;;;4967029;28;20426;-68
2023/12/14 09:37:28;;;;;;;14.40;10.93;;;10.40;99.90;;;;;;4959265;28;20664;-68
2023/12/14 09:39:53;;;;;;;15.30;11.00;;;10.50;99.90;;;;;;4964419;28;20230;-68
2023/12/14 09:42:20;;;;;;;15.20;10.70;;;10.50;99.90;;;;;;4973793;28;20470;-67
2023/12/14 09:44:48;;;;;;;12.80;9.30;;;10.40;99.90;;;;;;4964839;28;20205;-68
2023/12/14 09:47:14;;;;;;;12.13;9.67;;;10.50;99.90;;;;;;4963711;28;20434;-67
2023/12/14 09:49:42;;;;;;;15.13;10.50;;;10.50;99.90;;;;;;4960337;28;20426;-67
2023/12/14 09:52:08;;;;;;;16.03;10.87;;;10.60;99.90;;;;;;4960447;28;20443;-68
2023/12/14 09:54:34;;;;;;;15.10;9.67;;;10.60;99.90;;;;;;4957672;28;20460;-67
2023/12/14 09:57:00;;;;;;;13.13;9.67;;;10.70;99.90;;;;;;4964015;28;21005;-68
2023/12/14 09:59:25;;;;;;;13.47;9.40;;;10.80;99.90;;;;;;4964116;28;20738;-67
2023/12/14 10:01:51;;;;;;;12.10;10.67;;;10.80;99.90;;;;;;4956532;28;20207;-68
2023/12/14 10:04:18;;;;;;;14.77;10.60;;;10.80;99.90;;;;;;4961091;28;20218;-68
2023/12/14 10:06:45;;;;;;;14.60;9.63;;;10.80;99.90;;;;;;4958734;28;20307;-68
2023/12/14 10:09:16;;;;;;;15.93;10.43;;;10.80;99.90;;;;;;4959316;28;20431;-68
2023/12/14 10:11:43;;;;;;;13.10;10.07;;;10.80;99.90;;;;;;4954120;28;20775;-68
2023/12/14 10:14:22;;;;;;;12.73;8.90;;;10.90;99.90;;;;;;4958245;28;20446;-69
2023/12/14 10:16:49;;;;;;;11.63;8.67;;;11.00;99.90;;;;;;4954078;28;21158;-68
2023/12/14 10:19:16;;;;;;;13.67;9.50;;;11.00;99.90;;;;;;4959710;28;20434;-68
2023/12/14 10:21:42;;;;;;;11.40;9.10;;;11.00;99.90;;;;;;4957331;28;20958;-67
2023/12/14 10:24:08;;;;;;;12.37;9.50;;;11.00;99.90;;;;;;4964411;28;20435;-67
2023/12/14 10:26:33;;;;;;;10.37;8.97;;;11.10;99.90;;;;;;4962517;28;20182;-68
2023/12/14 10:28:59;;;;;;;18.63;9.23;;;11.20;99.90;;;;;;4966184;28;20182;-67
2023/12/14 10:31:26;;;;;;;13.43;10.03;;;11.10;99.90;;;;;;4963388;28;20179;-67
2023/12/14 10:33:51;;;;;;;13.10;10.73;;;11.20;99.90;;;;;;4966687;28;20602;-68
2023/12/14 10:36:25;;;;;;;12.07;9.00;;;11.30;99.90;;;;;;4964734;28;20419;-67
2023/12/14 10:38:57;;;;;;;11.67;9.13;;;11.40;99.90;;;;;;4961968;28;20178;-67
2023/12/14 10:41:24;;;;;;;12.83;9.50;;;11.40;99.90;;;;;;4968204;28;20461;-67
2023/12/14 10:43:53;;;;;;;11.33;8.80;;;11.30;99.90;;;;;;4965619;28;20442;-67
2023/12/14 10:46:20;;;;;;;12.30;9.73;;;11.40;99.90;;;;;;4964806;28;20480;-67
2023/12/14 10:48:49;;;;;;;13.03;10.00;;;11.40;99.90;;;;;;4963594;28;20626;-68
2023/12/14 10:51:17;;;;;;;13.50;9.47;;;11.40;99.90;;;;;;4964281;28;20439;-67
2023/12/14 10:53:47;;;;;;;13.33;9.40;;;11.40;99.90;;;;;;4959276;28;20465;-67
2023/12/14 10:56:13;;;;;;;12.40;9.67;;;11.40;99.90;;;;;;4961169;28;21474;-66
2023/12/14 10:58:55;;;;;;;14.40;9.80;;;11.30;99.90;;;;;;4967904;28;20452;-67
2023/12/14 11:01:24;;;;;;;13.57;9.93;;;11.30;99.90;;;;;;4964574;28;20985;-66
2023/12/14 11:03:52;;;;;;;11.50;9.10;;;11.30;99.90;;;;;;4966191;28;20673;-67
2023/12/14 11:06:35;;;;;;;11.47;9.77;;;11.30;99.90;;;;;;4963756;28;20420;-67
2023/12/14 11:09:06;;;;;;;12.87;9.90;;;11.10;99.90;;;;;;4963465;28;20534;-67
2023/12/14 11:11:47;;;;;;;14.97;12.07;;;11.10;99.90;;;;;;4956335;28;20419;-67
2023/12/14 11:14:13;;;;;;;12.70;10.47;;;11.10;99.90;;;;;;4962863;28;20459;-68
2023/12/14 11:16:46;;;;;;;16.60;10.37;;;11.10;99.90;;;;;;4971918;28;20423;-67
2023/12/14 11:19:24;;;;;;;13.17;10.80;;;11.10;99.90;;;;;;4965669;28;20415;-67
2023/12/14 11:22:08;;;;;;;14.93;10.37;;;11.10;99.90;;;;;;4958722;28;20563;-68
2023/12/14 11:24:37;;;;;;;14.60;10.30;;;11.10;99.90;;;;;;4968710;28;21628;-68
2023/12/14 11:27:09;;;;;;;15.83;10.37;;;11.00;99.90;;;;;;4967752;28;20510;-68
2023/12/14 11:29:37;;;;;;;13.50;10.50;;;11.00;99.90;;;;;;4967502;28;20482;-68
2023/12/14 11:32:03;;;;;;;16.40;11.53;;;11.10;99.90;;;;;;4967286;28;20441;-67
2023/12/14 11:34:29;;;;;;;15.53;11.90;;;11.00;99.90;;;;;;4965333;28;20987;-67
2023/12/14 11:36:55;;;;;;;16.83;12.60;;;10.90;99.90;;;;;;4970655;28;20449;-67
2023/12/14 11:39:21;;;;;;;13.53;10.30;;;11.00;99.90;;;;;;4964177;28;20265;-67
2023/12/14 11:42:04;;;;;;;16.30;12.17;;;11.00;99.90;;;;;;4964893;28;20460;-67
2023/12/14 11:44:30;;;;;;;16.80;11.40;;;11.10;99.90;;;;;;4964343;28;20488;-67
2023/12/14 11:46:56;;;;;;;14.50;11.33;;;11.10;99.90;;;;;;4964184;28;20431;-67
2023/12/14 11:49:25;;;;;;;16.90;10.73;;;11.10;99.90;;;;;;4970833;28;20818;-67
2023/12/14 11:51:52;;;;;;;13.50;11.67;;;11.10;99.90;;;;;;4960564;28;20418;-67
2023/12/14 11:54:18;;;;;;;14.87;10.90;;;11.10;99.90;;;;;;4968576;28;20457;-67
2023/12/14 11:56:50;;;;;;;14.47;10.50;;;11.00;99.90;;;;;;4969029;28;20419;-67
2023/12/14 11:59:17;;;;;;;15.17;10.40;;;11.10;99.90;;;;;;4964269;28;20218;-66
2023/12/14 12:01:59;;;;;;;15.90;10.20;;;11.10;99.90;;;;;;4962319;28;20517;-66
2023/12/14 12:04:25;;;;;;;15.13;11.70;;;11.10;99.90;;;;;;4961504;28;20466;-66
2023/12/14 12:07:06;;;;;;;13.93;9.90;;;11.10;99.90;;;;;;4971528;28;21434;-67
2023/12/14 12:09:45;;;;;;;15.47;10.53;;;11.00;99.90;;;;;;4965605;28;20501;-67
2023/12/14 12:12:12;;;;;;;16.30;9.67;;;11.00;99.90;;;;;;4958431;28;20521;-67
2023/12/14 12:14:41;;;;;;;16.43;11.10;;;11.20;99.90;;;;;;4963892;28;20500;-67
2023/12/14 12:17:07;;;;;;;13.23;9.10;;;11.20;99.90;;;;;;4962130;28;20937;-67
2023/12/14 12:19:37;;;;;;;14.00;10.03;;;11.10;99.90;;;;;;4957720;28;20493;-67
2023/12/14 12:22:03;;;;;;;15.10;10.93;;;11.10;99.90;;;;;;4960323;28;20465;-67
2023/12/14 12:24:30;;;;;;;15.10;9.43;;;11.10;99.90;;;;;;4960855;28;20474;-68
2023/12/14 12:26:55;;;;;;;13.37;10.20;;;11.20;99.90;;;;;;4964095;28;20856;-67
2023/12/14 12:29:22;;;;;;;16.13;9.60;;;11.10;99.90;;;;;;4963692;28;20420;-66
2023/12/14 12:31:48;;;;;;;15.70;10.30;;;11.10;99.90;;;;;;4962181;28;20228;-67